createdAt,value
2023-05-10T00:02:24.344Z,56.78
2023-05-10T00:07:27.477Z,57.18
2023-05-10T00:12:30.272Z,57.17
2023-05-10T00:17:33.100Z,57.19
2023-05-10T00:22:37.922Z,57.12
2023-05-10T00:27:40.640Z,57.08
2023-05-10T00:32:44.647Z,57.32
2023-05-10T00:37:47.471Z,57.39
2023-05-10T00:42:50.731Z,57.51
2023-05-10T00:47:56.249Z,57.51
2023-05-10T00:53:00.664Z,57.96
2023-05-10T00:58:03.463Z,58.37
2023-05-10T01:03:06.634Z,58.80
2023-05-10T01:08:09.899Z,58.97
2023-05-10T01:13:13.935Z,59.13
2023-05-10T01:18:21.240Z,59.53
2023-05-10T01:23:44.884Z,59.76
2023-05-10T01:29:02.751Z,59.93
2023-05-10T01:34:16.794Z,60.01
2023-05-10T01:39:29.649Z,60.17
2023-05-10T01:44:36.819Z,60.59
2023-05-10T01:49:47.848Z,61.28
2023-05-10T01:54:57.148Z,61.88
2023-05-10T02:00:02.262Z,62.12
2023-05-10T02:05:07.297Z,62.12
2023-05-10T02:10:12.837Z,62.44
2023-05-10T02:15:22.344Z,62.59
2023-05-10T02:20:26.699Z,62.75
2023-05-10T02:25:31.361Z,63.11
2023-05-10T02:30:36.227Z,63.56
2023-05-10T02:35:39.383Z,63.70
2023-05-10T02:40:43.639Z,63.76
2023-05-10T02:45:49.096Z,63.97
2023-05-10T02:50:53.534Z,64.36
2023-05-10T02:56:01.513Z,63.70
2023-05-10T03:01:04.640Z,62.93
2023-05-10T03:06:07.472Z,62.47
2023-05-10T03:11:34.900Z,62.38
2023-05-10T03:16:48.306Z,62.18
2023-05-10T03:21:53.756Z,62.12
2023-05-10T03:27:00.041Z,61.85
2023-05-10T03:32:03.283Z,61.73
2023-05-10T03:37:06.032Z,61.58
2023-05-10T03:42:08.897Z,61.38
2023-05-10T03:47:12.117Z,61.16
2023-05-10T03:52:15.429Z,60.98
2023-05-10T03:57:18.265Z,60.78
2023-05-10T04:02:21.109Z,60.54
2023-05-10T04:07:23.937Z,60.35
2023-05-10T04:12:26.749Z,60.09
2023-05-10T04:17:31.753Z,59.88
2023-05-10T04:22:34.631Z,59.55
2023-05-10T04:27:38.374Z,59.20
2023-05-10T04:32:41.283Z,58.06
2023-05-10T04:37:44.566Z,51.52
2023-05-10T04:42:47.631Z,44.22
2023-05-10T04:47:50.426Z,38.09
2023-05-10T04:52:53.414Z,33.14
2023-05-10T04:57:58.338Z,30.20
2023-05-10T05:03:01.240Z,27.70
2023-05-10T05:08:04.782Z,28.05
2023-05-10T05:13:07.785Z,30.19
2023-05-10T05:18:10.688Z,32.11
2023-05-10T05:23:13.750Z,33.85
2023-05-10T05:28:17.189Z,35.31
2023-05-10T05:33:20.485Z,36.44
2023-05-10T05:38:23.393Z,36.95
2023-05-10T05:43:26.320Z,37.63
2023-05-10T05:48:31.204Z,37.99
2023-05-10T05:53:34.924Z,38.26
2023-05-10T05:58:38.895Z,38.53
2023-05-10T06:03:42.612Z,38.60
2023-05-10T06:08:45.781Z,38.62
2023-05-10T06:14:01.189Z,38.26
2023-05-10T06:19:05.125Z,37.91
2023-05-10T06:24:08.564Z,38.20
2023-05-10T06:29:12.584Z,35.98
2023-05-10T06:34:15.478Z,30.48
2023-05-10T06:39:18.844Z,27.37
2023-05-10T06:44:22.549Z,24.22
2023-05-10T06:49:25.402Z,21.88
2023-05-10T06:54:28.521Z,19.81
2023-05-10T06:59:31.550Z,18.65
2023-05-10T07:04:35.402Z,17.56
2023-05-10T07:09:38.720Z,16.64
2023-05-10T07:14:43.637Z,15.60
2023-05-10T07:19:46.464Z,14.57
2023-05-10T07:24:49.585Z,14.74
2023-05-10T07:29:54.521Z,15.03
2023-05-10T07:34:57.468Z,14.97
2023-05-10T07:40:00.543Z,14.92
2023-05-10T07:45:03.650Z,15.62
2023-05-10T07:50:07.418Z,15.06
2023-05-10T07:55:11.874Z,14.94
2023-05-10T08:00:19.160Z,15.49
2023-05-10T08:05:22.349Z,15.16
2023-05-10T08:10:25.640Z,15.45
2023-05-10T08:15:28.432Z,16.08
2023-05-10T08:20:33.396Z,16.33
2023-05-10T08:25:36.470Z,16.60
2023-05-10T08:30:46.787Z,16.35
2023-05-10T08:35:50.061Z,17.00
2023-05-10T08:40:57.833Z,17.52
2023-05-10T08:46:06.692Z,17.94
2023-05-10T08:51:13.917Z,18.62
2023-05-10T08:56:18.719Z,18.78
2023-05-10T09:01:22.723Z,20.02
2023-05-10T09:06:25.832Z,20.18
2023-05-10T09:11:30.216Z,20.32
2023-05-10T09:16:33.140Z,20.09
2023-05-10T09:21:39.361Z,20.08
2023-05-10T09:26:53.512Z,21.13
2023-05-10T09:31:57.796Z,22.31
2023-05-10T09:37:03.878Z,22.63
2023-05-10T09:42:11.434Z,22.67
2023-05-10T09:47:19.485Z,23.25
2023-05-10T09:52:47.553Z,24.16
2023-05-10T09:57:59.744Z,24.23
2023-05-10T10:03:09.921Z,23.80
2023-05-10T10:08:16.469Z,24.12
2023-05-10T10:13:20.283Z,24.26
2023-05-10T10:18:28.145Z,24.37
2023-05-10T10:23:31.583Z,25.34
2023-05-10T10:29:01.490Z,25.34
2023-05-10T10:34:11.239Z,25.42
2023-05-10T10:39:25.096Z,25.28
2023-05-10T10:44:50.561Z,25.30
2023-05-10T10:50:05.274Z,25.23
2023-05-10T10:55:20.631Z,25.73
2023-05-10T11:00:38.087Z,25.85
2023-05-10T11:05:55.250Z,26.31
2023-05-10T11:11:12.076Z,26.51
2023-05-10T11:16:24.867Z,25.86
2023-05-10T11:21:28.454Z,25.87
2023-05-10T11:26:33.900Z,25.74
2023-05-10T11:31:43.510Z,26.12
2023-05-10T11:36:53.312Z,25.80
2023-05-10T11:41:58.212Z,25.87
2023-05-10T11:47:03.203Z,26.17
2023-05-10T11:52:21.457Z,26.03
2023-05-10T11:57:28.556Z,25.91
2023-05-10T12:02:37.616Z,26.51
2023-05-10T12:07:47.459Z,26.18
2023-05-10T12:12:53.711Z,25.70
2023-05-10T12:17:58.010Z,25.67
2023-05-10T12:23:04.712Z,25.37
2023-05-10T12:28:11.674Z,25.36
2023-05-10T12:33:17.650Z,25.67
2023-05-10T12:38:31.788Z,25.16
2023-05-10T12:43:36.390Z,25.17
2023-05-10T12:48:43.892Z,24.86
2023-05-10T12:53:49.692Z,25.41
2023-05-10T12:58:53.106Z,25.11
2023-05-10T13:03:56.701Z,24.48
2023-05-10T13:09:01.320Z,24.69
2023-05-10T13:14:05.929Z,24.59
2023-05-10T13:19:08.944Z,24.45
2023-05-10T13:24:15.054Z,24.42
2023-05-10T13:29:19.199Z,24.66
2023-05-10T13:34:22.134Z,25.12
2023-05-10T13:39:25.420Z,24.82
2023-05-10T13:44:28.366Z,25.03
2023-05-10T13:49:32.637Z,24.51
2023-05-10T13:54:35.557Z,24.61
2023-05-10T13:59:38.860Z,24.35
2023-05-10T14:04:42.092Z,24.41
2023-05-10T14:09:44.895Z,24.05
2023-05-10T14:14:47.752Z,24.30
2023-05-10T14:19:50.682Z,24.21
2023-05-10T14:24:56.179Z,24.47
2023-05-10T14:30:00.474Z,23.95
2023-05-10T14:35:12.207Z,24.22
2023-05-10T14:40:19.871Z,24.61
2023-05-10T14:45:25.073Z,24.10
2023-05-10T14:50:36.435Z,24.50
2023-05-10T14:55:42.328Z,24.48
2023-05-10T15:00:45.217Z,24.72
2023-05-10T15:05:48.809Z,24.83
2023-05-10T15:10:52.440Z,25.46
2023-05-10T15:15:56.008Z,25.43
2023-05-10T15:20:58.957Z,25.81
2023-05-10T15:26:04.238Z,25.98
2023-05-10T15:31:07.234Z,25.90
2023-05-10T15:36:10.093Z,24.84
2023-05-10T15:41:13.430Z,24.84
2023-05-10T15:46:16.274Z,25.38
2023-05-10T15:51:21.039Z,25.65
2023-05-10T15:56:25.154Z,25.86
2023-05-10T16:01:29.316Z,26.70
2023-05-10T16:06:35.771Z,27.12
2023-05-10T16:11:38.799Z,26.94
2023-05-10T16:16:41.967Z,27.03
2023-05-10T16:21:44.891Z,26.98
2023-05-10T16:26:48.656Z,27.22
2023-05-10T16:31:52.575Z,27.72
2023-05-10T16:36:55.410Z,28.11
2023-05-10T16:41:59.199Z,28.28
2023-05-10T16:47:04.223Z,28.45
2023-05-10T16:52:07.139Z,28.49
2023-05-10T16:57:09.966Z,28.79
2023-05-10T17:02:14.039Z,28.77
2023-05-10T17:07:19.095Z,28.96
2023-05-10T17:12:28.644Z,29.13
2023-05-10T17:17:33.546Z,29.51
2023-05-10T17:22:36.446Z,29.82
2023-05-10T17:27:39.677Z,29.97
2023-05-10T17:32:43.878Z,30.12
2023-05-10T17:43:16.247Z,30.66
2023-05-10T17:48:19.270Z,30.98
2023-05-10T17:53:22.120Z,31.18
2023-05-10T17:58:25.615Z,31.52
2023-05-10T18:03:29.809Z,31.63
2023-05-10T18:08:35.778Z,31.90
2023-05-10T18:13:42.554Z,32.25
2023-05-10T18:18:45.699Z,32.43
2023-05-10T18:23:49.117Z,32.88
2023-05-10T18:28:52.043Z,33.24
2023-05-10T18:33:54.994Z,33.68
2023-05-10T18:38:58.357Z,34.07
2023-05-10T18:44:01.770Z,34.29
2023-05-10T18:49:05.633Z,34.76
2023-05-10T18:54:08.577Z,34.99
2023-05-10T18:59:12.881Z,35.36
2023-05-10T19:04:15.952Z,35.74
2023-05-10T19:09:20.259Z,36.17
2023-05-10T19:14:25.166Z,36.53
2023-05-10T19:19:29.000Z,37.04
2023-05-10T19:24:36.199Z,37.42
2023-05-10T19:29:40.386Z,37.79
2023-05-10T19:34:44.801Z,38.17
2023-05-10T19:39:47.773Z,38.47
2023-05-10T19:44:52.082Z,38.88
2023-05-10T19:49:55.212Z,39.19
2023-05-10T19:54:58.318Z,39.47
2023-05-10T20:00:02.546Z,39.76
2023-05-10T20:05:05.770Z,39.95
2023-05-10T20:10:10.175Z,40.25
2023-05-10T20:15:14.219Z,40.51
2023-05-10T20:20:17.585Z,40.83
2023-05-10T20:25:22.223Z,40.93
2023-05-10T20:30:25.184Z,41.28
2023-05-10T20:35:27.983Z,41.56
2023-05-10T20:40:31.901Z,41.91
2023-05-10T20:45:37.485Z,42.56
2023-05-10T20:50:43.292Z,43.16
2023-05-10T20:55:46.077Z,43.49
2023-05-10T21:00:49.282Z,43.63
2023-05-10T21:05:52.047Z,44.19
2023-05-10T21:10:54.885Z,44.46
2023-05-10T21:15:57.755Z,44.70
2023-05-10T21:21:00.746Z,45.04
2023-05-10T21:26:04.351Z,45.33
2023-05-10T21:31:08.548Z,45.78
2023-05-10T21:36:11.779Z,45.69
2023-05-10T21:41:14.610Z,46.05
2023-05-10T21:46:17.632Z,46.44
2023-05-10T21:51:21.922Z,46.62
2023-05-10T21:56:24.721Z,46.80
2023-05-10T22:01:27.722Z,47.16
2023-05-10T22:06:31.103Z,47.14
2023-05-10T22:11:34.452Z,47.71
2023-05-10T22:16:37.342Z,47.88
2023-05-10T22:21:40.225Z,48.19
2023-05-10T22:26:43.031Z,48.10
2023-05-10T22:31:45.988Z,49.15
2023-05-10T22:36:50.639Z,49.48
2023-05-10T22:41:53.463Z,49.63
2023-05-10T22:46:56.481Z,50.40
2023-05-10T22:51:59.412Z,50.77
2023-05-10T22:57:02.294Z,50.80
2023-05-10T23:02:05.282Z,51.15
2023-05-10T23:07:08.221Z,51.36
2023-05-10T23:12:11.137Z,51.60
2023-05-10T23:17:13.969Z,52.47
2023-05-10T23:22:17.133Z,52.58
2023-05-10T23:27:19.943Z,52.87
2023-05-10T23:32:23.452Z,53.13
2023-05-10T23:37:26.275Z,53.19
2023-05-10T23:42:29.083Z,52.83
2023-05-10T23:47:31.942Z,52.54
2023-05-10T23:52:34.797Z,52.42
2023-05-10T23:57:37.979Z,52.38
